KCDD

Scotts Seaplane Base

Crane Lake, Minnesota, USA
METAR KCDD 221651Z AUTO 34004KT 10SM CLR 26/15 A2990 RMK AO2
Observed Flight Rules
Jun-22 @ 16:51 UTC (17 minutes ago) Visual Flight Rules
Wind Visibility Clouds
340° at 4 knots 10 miles
  • Clear skies
Temperatures Readings
Current 26°C / 79°F
Dewpoint 15°C / 59°F
Humidity 51%
Altimeter 29.9" Hg
Pressure 1013 hPa
Elevation 341
METAR KCDD 221651Z AUTO 34004KT 10SM CLR 26/15 A2990 RMK AO2
Observed Flight Rules
Jun-22 @ 16:51 UTC
(17 minutes ago)
VFR
Wind Visibility
340° at 4 knots 10 miles
Clouds
  • Clear skies
Temperature Dewpoint
26°C / 79°F 15°C / 59°F
Humidity Altimeter Pressure
51% 29.9" Hg 1013 hPa